createdAt,value
2018-11-13T00:01:25.892Z,8.20
2018-11-13T00:03:54.482Z,8.10
2018-11-13T00:06:23.129Z,8.20
2018-11-13T00:08:51.694Z,8.10
2018-11-13T00:11:20.317Z,8.10
2018-11-13T00:13:48.814Z,8.10
2018-11-13T00:16:17.356Z,8.10
2018-11-13T00:18:45.912Z,8.10
2018-11-13T00:21:14.444Z,8.00
2018-11-13T00:23:43.010Z,8.10
2018-11-13T00:26:11.618Z,8.10
2018-11-13T00:28:40.156Z,8.20
2018-11-13T00:31:08.705Z,8.30
2018-11-13T00:33:37.227Z,8.40
2018-11-13T00:36:05.792Z,8.50
2018-11-13T00:38:34.350Z,8.60
2018-11-13T00:41:02.887Z,8.60
2018-11-13T00:43:31.438Z,8.60
2018-11-13T00:46:00.047Z,8.60
2018-11-13T00:48:28.989Z,8.60
2018-11-13T00:50:57.576Z,8.60
2018-11-13T00:53:26.135Z,8.60
2018-11-13T00:55:54.705Z,8.60
2018-11-13T00:58:23.263Z,8.60
2018-11-13T01:00:51.860Z,8.50
2018-11-13T01:03:20.402Z,8.50
2018-11-13T01:05:48.961Z,8.50
2018-11-13T01:08:17.513Z,8.50
2018-11-13T01:10:46.060Z,8.50
2018-11-13T01:13:14.603Z,8.50
2018-11-13T01:15:43.140Z,8.40
2018-11-13T01:18:11.720Z,8.40
2018-11-13T01:20:40.301Z,8.40
2018-11-13T01:23:08.856Z,8.40
2018-11-13T01:25:37.412Z,8.40
2018-11-13T01:28:06.262Z,8.40
2018-11-13T01:30:37.750Z,8.40
2018-11-13T01:33:06.389Z,8.30
2018-11-13T01:35:34.944Z,8.40
2018-11-13T01:38:03.611Z,8.40
2018-11-13T01:40:32.164Z,8.50
2018-11-13T01:43:00.699Z,8.50
2018-11-13T01:45:29.217Z,8.50
2018-11-13T01:47:57.820Z,8.50
2018-11-13T01:50:26.338Z,8.50
2018-11-13T01:52:54.905Z,8.50
2018-11-13T01:55:23.444Z,8.40
2018-11-13T01:57:51.974Z,8.40
2018-11-13T02:00:21.844Z,8.40
2018-11-13T02:02:51.664Z,8.40
2018-11-13T02:05:21.373Z,8.40
2018-11-13T02:07:50.494Z,8.30
2018-11-13T02:10:19.370Z,8.30
2018-11-13T02:12:48.472Z,8.30
2018-11-13T02:15:17.621Z,8.30
2018-11-13T02:17:46.187Z,8.30
2018-11-13T02:20:16.694Z,8.30
2018-11-13T02:22:45.271Z,8.40
2018-11-13T02:25:15.173Z,8.40
2018-11-13T02:27:43.973Z,8.50
2018-11-13T02:30:14.824Z,8.50
2018-11-13T02:32:44.044Z,8.50
2018-11-13T02:35:12.926Z,8.50
2018-11-13T02:37:41.529Z,8.50
2018-11-13T02:40:10.129Z,8.50
2018-11-13T02:42:39.200Z,8.50
2018-11-13T02:45:11.589Z,8.50
2018-11-13T02:47:40.621Z,8.40
2018-11-13T02:50:11.830Z,8.40
2018-11-13T02:52:40.419Z,8.40
2018-11-13T02:55:11.061Z,8.40
2018-11-13T02:57:39.806Z,8.40
2018-11-13T03:00:10.415Z,8.50
2018-11-13T03:02:38.981Z,8.50
2018-11-13T03:05:09.367Z,8.50
2018-11-13T03:07:38.286Z,8.50
2018-11-13T03:10:08.245Z,8.40
2018-11-13T03:12:36.838Z,8.40
2018-11-13T03:15:06.265Z,8.40
2018-11-13T03:17:34.979Z,8.40
2018-11-13T03:20:03.759Z,8.40
2018-11-13T03:22:32.319Z,8.40
2018-11-13T03:25:00.881Z,8.30
2018-11-13T03:27:29.428Z,8.30
2018-11-13T03:29:58.030Z,8.30
2018-11-13T03:32:26.730Z,8.40
2018-11-13T03:34:59.295Z,8.40
2018-11-13T03:37:27.883Z,8.40
2018-11-13T03:39:56.438Z,8.40
2018-11-13T03:42:24.980Z,8.40
2018-11-13T03:44:53.511Z,8.40
2018-11-13T03:47:22.081Z,8.40
2018-11-13T03:49:50.649Z,8.40
2018-11-13T03:52:19.208Z,8.40
2018-11-13T03:54:47.757Z,8.40
2018-11-13T03:57:16.307Z,8.40
2018-11-13T03:59:44.844Z,8.40
2018-11-13T04:02:13.410Z,8.30
2018-11-13T04:04:41.931Z,8.40
2018-11-13T04:07:10.452Z,8.30
2018-11-13T04:09:39.003Z,8.40
2018-11-13T04:12:07.568Z,8.40
2018-11-13T04:14:36.154Z,8.40
2018-11-13T04:17:05.578Z,8.40
2018-11-13T04:19:34.187Z,8.40
2018-11-13T04:22:03.871Z,8.40
2018-11-13T04:24:32.884Z,8.30
2018-11-13T04:27:02.086Z,8.30
2018-11-13T04:29:30.950Z,8.30
2018-11-13T04:31:59.540Z,8.30
2018-11-13T04:34:28.097Z,8.40
2018-11-13T04:36:56.649Z,8.30
2018-11-13T04:39:25.180Z,8.30
2018-11-13T04:41:53.724Z,8.40
2018-11-13T04:44:22.262Z,8.30
2018-11-13T04:46:50.806Z,8.30
2018-11-13T04:49:19.346Z,8.30
2018-11-13T04:51:47.962Z,8.30
2018-11-13T04:54:16.493Z,8.20
2018-11-13T04:56:45.098Z,8.20
2018-11-13T04:59:13.641Z,8.20
2018-11-13T05:01:42.200Z,8.20
2018-11-13T05:04:10.759Z,8.10
2018-11-13T05:06:39.421Z,8.10
2018-11-13T05:09:08.191Z,8.10
2018-11-13T05:11:36.809Z,8.10
2018-11-13T05:14:05.475Z,8.20
2018-11-13T05:16:34.028Z,8.30
2018-11-13T05:19:02.577Z,8.30
2018-11-13T05:21:31.187Z,8.40
2018-11-13T05:23:59.729Z,8.40
2018-11-13T05:26:28.277Z,8.40
2018-11-13T05:28:57.099Z,8.40
2018-11-13T05:31:25.737Z,8.40
2018-11-13T05:33:54.316Z,8.40
2018-11-13T05:36:22.942Z,8.40
2018-11-13T05:38:51.468Z,8.40
2018-11-13T05:41:20.015Z,8.40
2018-11-13T05:43:48.562Z,8.50
2018-11-13T05:46:17.120Z,8.50
2018-11-13T05:48:45.655Z,8.50
2018-11-13T05:51:14.228Z,8.50
2018-11-13T05:53:42.758Z,8.50
2018-11-13T05:56:11.316Z,8.50
2018-11-13T05:58:40.017Z,8.50
2018-11-13T06:01:08.768Z,8.50
2018-11-13T06:03:38.235Z,8.60
2018-11-13T06:06:07.022Z,8.60
2018-11-13T06:08:35.644Z,8.60
2018-11-13T06:11:04.160Z,8.60
2018-11-13T06:13:32.705Z,8.60
2018-11-13T06:16:01.236Z,8.60
2018-11-13T06:18:29.787Z,8.70
2018-11-13T06:20:58.341Z,8.70
2018-11-13T06:23:26.914Z,8.70
2018-11-13T06:25:55.479Z,8.70
2018-11-13T06:28:24.013Z,8.70
2018-11-13T06:30:52.533Z,8.70
2018-11-13T06:33:21.064Z,8.70
2018-11-13T06:35:49.636Z,8.60
2018-11-13T06:38:18.162Z,8.70
2018-11-13T06:40:46.714Z,8.70
2018-11-13T06:43:15.257Z,8.70
2018-11-13T06:45:43.783Z,8.80
2018-11-13T06:48:12.326Z,8.80
2018-11-13T06:50:40.843Z,8.80
2018-11-13T06:53:09.358Z,8.90
2018-11-13T06:55:39.750Z,8.90
2018-11-13T06:58:08.288Z,8.90
2018-11-13T07:00:36.867Z,9.00
2018-11-13T07:03:05.507Z,9.00
2018-11-13T07:05:34.093Z,9.00
2018-11-13T07:08:02.735Z,9.10
2018-11-13T07:10:31.338Z,9.20
2018-11-13T07:13:00.133Z,9.20
2018-11-13T07:15:29.927Z,9.20
2018-11-13T07:18:00.976Z,9.30
2018-11-13T07:20:30.930Z,9.30
2018-11-13T07:22:59.497Z,9.30
2018-11-13T07:25:28.163Z,9.40
2018-11-13T07:27:59.345Z,9.40
2018-11-13T07:30:28.423Z,9.40
2018-11-13T07:32:57.016Z,9.40
2018-11-13T07:35:25.671Z,9.50
2018-11-13T07:37:58.290Z,9.50
2018-11-13T07:40:26.901Z,9.50
2018-11-13T07:42:55.682Z,9.50
2018-11-13T07:45:24.334Z,9.50
2018-11-13T07:47:53.389Z,9.60
2018-11-13T07:50:29.254Z,9.60
2018-11-13T07:52:57.918Z,9.60
2018-11-13T07:55:26.458Z,9.60
2018-11-13T07:57:55.045Z,9.60
2018-11-13T08:00:24.759Z,9.60
2018-11-13T08:02:54.697Z,9.60
2018-11-13T08:05:23.519Z,9.60
2018-11-13T08:07:52.290Z,9.60
2018-11-13T08:10:20.890Z,9.60
2018-11-13T08:12:49.481Z,9.60
2018-11-13T08:15:18.722Z,9.70
2018-11-13T08:17:47.262Z,9.80
2018-11-13T08:20:16.404Z,9.80
2018-11-13T08:22:45.175Z,9.90
2018-11-13T08:25:13.777Z,9.90
2018-11-13T08:27:42.729Z,10.00
2018-11-13T08:30:13.841Z,10.10
2018-11-13T08:32:42.856Z,10.10
2018-11-13T08:35:11.502Z,10.10
2018-11-13T08:37:40.134Z,10.20
2018-11-13T08:40:11.260Z,10.30
2018-11-13T08:42:39.872Z,10.40
2018-11-13T08:45:09.194Z,10.50
2018-11-13T08:47:37.774Z,10.50
2018-11-13T08:50:08.715Z,10.60
2018-11-13T08:52:37.207Z,10.70
2018-11-13T08:55:06.397Z,10.80
2018-11-13T08:57:35.461Z,10.90
2018-11-13T09:00:04.598Z,10.90
2018-11-13T09:02:33.152Z,10.90
2018-11-13T09:05:01.747Z,10.90
2018-11-13T09:07:30.243Z,10.90
2018-11-13T09:09:58.798Z,11.00
2018-11-13T09:12:27.426Z,11.00
2018-11-13T09:14:55.901Z,11.00
2018-11-13T09:17:24.433Z,11.10
2018-11-13T09:19:52.965Z,11.10
2018-11-13T09:22:21.528Z,11.20
2018-11-13T09:24:50.068Z,11.20
2018-11-13T09:27:18.620Z,11.30
2018-11-13T09:29:47.213Z,11.40
2018-11-13T09:32:15.708Z,11.50
2018-11-13T09:34:44.281Z,11.60
2018-11-13T09:37:12.896Z,11.70
2018-11-13T09:39:41.451Z,11.80
2018-11-13T09:42:09.995Z,11.90
2018-11-13T09:44:38.580Z,11.90
2018-11-13T09:47:07.176Z,11.80
2018-11-13T09:49:35.759Z,11.80
2018-11-13T09:52:04.662Z,11.80
2018-11-13T09:54:33.494Z,11.70
2018-11-13T09:57:02.051Z,11.60
2018-11-13T09:59:30.606Z,11.50
2018-11-13T10:01:59.408Z,11.30
2018-11-13T10:04:28.221Z,11.20
2018-11-13T10:06:56.374Z,11.10
2018-11-13T10:09:24.881Z,11.00
2018-11-13T10:11:53.469Z,10.90
2018-11-13T10:14:22.015Z,10.80
2018-11-13T10:16:50.549Z,10.80
2018-11-13T10:19:19.138Z,10.80
2018-11-13T10:21:47.713Z,10.80
2018-11-13T10:24:16.379Z,10.80
2018-11-13T10:26:45.002Z,10.80
2018-11-13T10:29:13.544Z,10.80
2018-11-13T10:31:42.047Z,10.90
2018-11-13T10:34:10.621Z,10.90
2018-11-13T10:36:39.426Z,10.90
2018-11-13T10:39:09.551Z,10.90
2018-11-13T10:41:38.131Z,10.90
2018-11-13T10:44:06.730Z,10.80
2018-11-13T10:46:35.826Z,10.70
2018-11-13T10:49:04.484Z,10.60
2018-11-13T10:51:33.130Z,10.50
2018-11-13T10:54:01.767Z,10.40
2018-11-13T10:56:30.430Z,10.40
2018-11-13T10:58:58.859Z,10.30
2018-11-13T11:01:32.604Z,10.20
2018-11-13T11:04:07.405Z,10.10
2018-11-13T11:06:35.980Z,10.00
2018-11-13T11:09:06.640Z,10.00
2018-11-13T11:11:35.264Z,10.00
2018-11-13T11:14:04.132Z,9.90
2018-11-13T11:16:32.413Z,9.90
2018-11-13T11:19:01.216Z,9.80
2018-11-13T11:21:29.690Z,9.80
2018-11-13T11:23:58.252Z,9.70
2018-11-13T11:26:26.837Z,9.60
2018-11-13T11:28:55.372Z,9.60
2018-11-13T11:31:23.920Z,9.60
2018-11-13T11:33:52.486Z,9.60
2018-11-13T11:36:21.035Z,9.50
2018-11-13T11:38:49.661Z,9.40
2018-11-13T11:41:18.185Z,9.40
2018-11-13T11:43:46.716Z,9.30
2018-11-13T11:46:15.273Z,9.20
2018-11-13T11:48:43.784Z,9.20
2018-11-13T11:51:12.292Z,9.10
2018-11-13T11:53:40.898Z,9.10
2018-11-13T11:56:09.381Z,9.10
2018-11-13T11:58:37.910Z,9.10
2018-11-13T12:01:06.447Z,9.10
2018-11-13T12:03:35.002Z,9.10
2018-11-13T12:06:03.544Z,9.10
2018-11-13T12:08:32.155Z,9.10
2018-11-13T12:11:00.702Z,9.10
2018-11-13T12:13:29.294Z,9.00
2018-11-13T12:15:57.902Z,9.00
2018-11-13T12:18:26.495Z,8.90
2018-11-13T12:20:55.031Z,8.90
2018-11-13T12:23:23.628Z,8.90
2018-11-13T12:25:52.324Z,8.90
2018-11-13T12:28:20.791Z,8.90
2018-11-13T12:30:49.344Z,8.80
2018-11-13T12:33:18.225Z,8.80
2018-11-13T12:35:46.788Z,8.80
2018-11-13T12:38:15.320Z,8.80
2018-11-13T12:40:43.941Z,8.90
2018-11-13T12:43:12.462Z,8.90
2018-11-13T12:45:41.077Z,8.80
2018-11-13T12:48:11.178Z,8.80
2018-11-13T12:50:45.017Z,8.70
2018-11-13T12:53:13.558Z,8.70
2018-11-13T12:55:42.245Z,8.70
2018-11-13T12:58:10.781Z,8.70
2018-11-13T13:00:39.340Z,8.70
2018-11-13T13:03:07.877Z,8.70
2018-11-13T13:05:36.451Z,8.70
2018-11-13T13:08:05.077Z,8.70
2018-11-13T13:10:33.673Z,8.70
2018-11-13T13:13:02.236Z,8.80
2018-11-13T13:15:30.847Z,8.80
2018-11-13T13:17:59.409Z,8.80
2018-11-13T13:20:27.945Z,8.80
2018-11-13T13:22:57.060Z,8.80
2018-11-13T13:25:25.752Z,8.80
2018-11-13T13:27:54.298Z,8.80
2018-11-13T13:30:24.983Z,8.80
2018-11-13T13:32:53.574Z,8.80
2018-11-13T13:36:08.442Z,8.80
2018-11-13T13:38:38.279Z,8.90
2018-11-13T13:41:07.077Z,8.80
2018-11-13T13:43:36.000Z,8.80
2018-11-13T13:46:04.576Z,8.80
2018-11-13T13:48:33.201Z,8.80
2018-11-13T13:51:01.749Z,8.80
2018-11-13T13:53:33.334Z,8.80
2018-11-13T13:56:01.892Z,8.70
2018-11-13T13:58:30.425Z,8.70
2018-11-13T14:00:59.208Z,8.70
2018-11-13T14:03:27.567Z,8.70
2018-11-13T14:05:56.214Z,8.60
2018-11-13T14:08:24.696Z,8.60
2018-11-13T14:10:53.243Z,8.60
2018-11-13T14:13:21.763Z,8.50
2018-11-13T14:15:50.406Z,8.50
2018-11-13T14:18:18.952Z,8.50
2018-11-13T14:20:47.540Z,8.50
2018-11-13T14:23:16.119Z,8.50
2018-11-13T14:25:44.680Z,8.50
2018-11-13T14:28:13.273Z,8.50
2018-11-13T14:30:41.820Z,8.60
2018-11-13T14:33:11.539Z,8.60
2018-11-13T14:35:40.185Z,8.60
2018-11-13T14:38:08.652Z,8.60
2018-11-13T14:40:39.705Z,8.60
2018-11-13T14:43:08.550Z,8.70
2018-11-13T14:45:37.089Z,8.70
2018-11-13T14:48:06.009Z,8.80
2018-11-13T14:50:35.830Z,8.80
2018-11-13T14:53:04.583Z,8.80
2018-11-13T14:55:34.676Z,8.80
2018-11-13T14:58:03.962Z,8.80
2018-11-13T15:00:33.652Z,8.90
2018-11-13T15:03:03.315Z,8.90
2018-11-13T15:05:32.573Z,8.90
2018-11-13T15:08:04.363Z,8.90
2018-11-13T15:10:41.153Z,8.90
2018-11-13T15:13:10.334Z,8.90
2018-11-13T15:15:38.902Z,9.00
2018-11-13T15:18:07.833Z,9.00
2018-11-13T15:20:36.436Z,8.90
2018-11-13T15:23:06.016Z,8.90
2018-11-13T15:25:34.641Z,8.90
2018-11-13T15:28:03.191Z,8.80
2018-11-13T15:30:33.077Z,8.80
2018-11-13T15:33:07.873Z,8.80
2018-11-13T15:35:36.455Z,8.80
2018-11-13T15:38:05.603Z,8.90
2018-11-13T15:40:34.152Z,8.80
2018-11-13T15:43:02.694Z,8.80
2018-11-13T15:45:31.265Z,8.80
2018-11-13T15:48:01.099Z,8.80
2018-11-13T15:50:30.952Z,8.80
2018-11-13T15:52:59.553Z,8.80
2018-11-13T15:55:28.172Z,8.70
2018-11-13T15:57:57.205Z,8.70
2018-11-13T16:00:32.039Z,8.70
2018-11-13T16:03:02.075Z,8.60
2018-11-13T16:05:42.098Z,8.60
2018-11-13T16:08:11.001Z,8.50
2018-11-13T16:10:39.639Z,8.50
2018-11-13T16:13:08.433Z,8.50
2018-11-13T16:15:37.099Z,8.50
2018-11-13T16:18:07.028Z,8.50
2018-11-13T16:20:35.582Z,8.50
2018-11-13T16:23:04.188Z,8.40
2018-11-13T16:25:32.732Z,8.40
2018-11-13T16:28:01.272Z,8.40
2018-11-13T16:30:34.201Z,8.30
2018-11-13T16:33:02.662Z,8.30
2018-11-13T16:35:31.901Z,8.30
2018-11-13T16:38:01.770Z,8.20
2018-11-13T16:40:31.308Z,8.20
2018-11-13T16:43:00.044Z,8.20
2018-11-13T16:45:29.732Z,8.10
2018-11-13T16:47:59.075Z,8.20
2018-11-13T16:50:43.059Z,8.20
2018-11-13T16:53:11.611Z,8.10
2018-11-13T16:55:45.719Z,8.10
2018-11-13T16:58:15.268Z,8.00
2018-11-13T17:00:44.038Z,8.00
2018-11-13T17:03:12.534Z,8.00
2018-11-13T17:05:41.109Z,7.90
2018-11-13T17:08:10.015Z,7.90
2018-11-13T17:10:40.499Z,7.90
2018-11-13T17:13:09.092Z,7.90
2018-11-13T17:15:37.808Z,7.80
2018-11-13T17:18:06.771Z,7.80
2018-11-13T17:20:35.351Z,7.80
2018-11-13T17:23:03.944Z,7.90
2018-11-13T17:25:34.113Z,7.90
2018-11-13T17:28:02.666Z,7.80
2018-11-13T17:30:32.443Z,7.90
2018-11-13T17:33:02.151Z,7.90
2018-11-13T17:35:31.365Z,8.00
2018-11-13T17:38:00.744Z,8.00
2018-11-13T17:40:30.681Z,8.10
2018-11-13T17:43:00.593Z,8.10
2018-11-13T17:45:33.416Z,8.20
2018-11-13T17:48:01.965Z,8.10
2018-11-13T17:50:37.700Z,8.00
2018-11-13T17:53:07.172Z,7.90
2018-11-13T17:55:35.783Z,7.90
2018-11-13T17:58:07.185Z,7.80
2018-11-13T18:00:39.933Z,7.70
2018-11-13T18:03:09.746Z,7.60
2018-11-13T18:05:38.751Z,7.60
2018-11-13T18:08:08.942Z,7.50
2018-11-13T18:10:38.736Z,7.50
2018-11-13T18:13:07.833Z,7.40
2018-11-13T18:15:36.532Z,7.40
2018-11-13T18:18:05.896Z,7.30
2018-11-13T18:20:35.846Z,7.30
2018-11-13T18:23:04.566Z,7.20
2018-11-13T18:25:33.193Z,7.20
2018-11-13T18:28:02.454Z,7.20
2018-11-13T18:30:32.307Z,7.20
2018-11-13T18:33:01.499Z,7.10
2018-11-13T18:35:31.413Z,7.10
2018-11-13T18:38:01.123Z,7.10
2018-11-13T18:40:29.760Z,7.10
2018-11-13T18:42:59.646Z,7.10
2018-11-13T18:45:30.286Z,7.00
2018-11-13T18:47:59.037Z,6.90
2018-11-13T18:50:29.249Z,6.90
2018-11-13T18:52:57.615Z,6.90
2018-11-13T18:55:26.248Z,6.90
2018-11-13T18:57:54.883Z,6.80
2018-11-13T19:00:29.817Z,6.80
2018-11-13T19:02:59.194Z,6.80
2018-11-13T19:05:28.086Z,6.80
2018-11-13T19:07:56.864Z,6.70
2018-11-13T19:10:32.568Z,6.70
2018-11-13T19:13:02.245Z,6.80
2018-11-13T19:15:32.236Z,6.80
2018-11-13T19:18:04.281Z,6.80
2018-11-13T19:20:32.926Z,6.80
2018-11-13T19:23:01.566Z,6.80
2018-11-13T19:25:32.001Z,6.80
2018-11-13T19:28:01.134Z,6.90
2018-11-13T19:30:29.797Z,6.90
2018-11-13T19:32:58.425Z,6.90
2018-11-13T19:35:27.280Z,6.90
2018-11-13T19:37:55.824Z,6.90
2018-11-13T19:40:25.929Z,7.00
2018-11-13T19:42:55.368Z,7.00
2018-11-13T19:45:24.002Z,7.10
2018-11-13T19:47:52.605Z,7.10
2018-11-13T19:50:25.762Z,7.20
2018-11-13T19:52:54.318Z,7.30
2018-11-13T19:55:23.997Z,7.40
2018-11-13T19:57:52.589Z,7.50
2018-11-13T20:00:37.657Z,7.60
2018-11-13T20:03:07.768Z,7.60
2018-11-13T20:05:36.388Z,7.70
2018-11-13T20:08:05.691Z,7.60
2018-11-13T20:10:35.025Z,7.60
2018-11-13T20:13:04.802Z,7.70
2018-11-13T20:15:34.099Z,7.60
2018-11-13T20:18:02.663Z,7.60
2018-11-13T20:20:32.193Z,7.40
2018-11-13T20:23:02.021Z,7.50
2018-11-13T20:25:31.832Z,7.50
2018-11-13T20:28:00.397Z,7.50
2018-11-13T20:30:34.444Z,7.50
2018-11-13T20:33:03.260Z,7.50
2018-11-13T20:35:31.916Z,7.50
2018-11-13T20:38:00.880Z,7.50
2018-11-13T20:40:30.659Z,7.50
2018-11-13T20:43:00.723Z,7.60
2018-11-13T20:45:29.331Z,7.50
2018-11-13T20:47:57.872Z,7.50
2018-11-13T20:50:27.921Z,7.50
2018-11-13T20:52:56.478Z,7.40
2018-11-13T20:55:25.033Z,7.40
2018-11-13T20:57:53.607Z,7.30
2018-11-13T21:00:23.429Z,7.20
2018-11-13T21:02:51.987Z,7.20
2018-11-13T21:05:20.547Z,7.20
2018-11-13T21:07:49.161Z,7.20
2018-11-13T21:10:19.244Z,7.20
2018-11-13T21:15:14.692Z,7.20
2018-11-13T21:17:43.286Z,7.20
2018-11-13T21:20:14.036Z,7.20
2018-11-13T21:22:42.643Z,7.20
2018-11-13T21:25:12.490Z,7.20
2018-11-13T21:27:41.406Z,7.20
2018-11-13T21:30:12.087Z,7.10
2018-11-13T21:32:40.870Z,7.10
2018-11-13T21:35:10.155Z,7.10
2018-11-13T21:37:38.940Z,7.10
2018-11-13T21:40:08.175Z,7.00
2018-11-13T21:42:36.747Z,7.00
2018-11-13T21:45:06.167Z,7.00
2018-11-13T21:47:34.776Z,7.00
2018-11-13T21:50:03.497Z,7.00
2018-11-13T21:52:32.009Z,6.90
2018-11-13T21:55:00.551Z,6.80
2018-11-13T21:57:29.102Z,6.90
2018-11-13T21:59:57.717Z,6.90
2018-11-13T22:02:26.364Z,6.90
2018-11-13T22:04:54.975Z,7.00
2018-11-13T22:07:23.595Z,6.90
2018-11-13T22:09:52.157Z,6.90
2018-11-13T22:12:20.719Z,6.90
2018-11-13T22:14:49.268Z,6.80
2018-11-13T22:17:17.957Z,6.90
2018-11-13T22:19:46.544Z,6.90
2018-11-13T22:22:15.129Z,6.90
2018-11-13T22:24:43.669Z,6.90
2018-11-13T22:27:12.525Z,6.80
2018-11-13T22:29:41.042Z,6.80
2018-11-13T22:32:09.585Z,6.80
2018-11-13T22:34:38.134Z,6.70
2018-11-13T22:37:06.745Z,6.70
2018-11-13T22:39:35.381Z,6.80
2018-11-13T22:42:03.925Z,6.90
2018-11-13T22:44:32.495Z,6.90
2018-11-13T22:47:01.039Z,7.00
2018-11-13T22:49:29.591Z,7.00
2018-11-13T22:51:58.324Z,7.00
2018-11-13T22:54:26.914Z,7.10
2018-11-13T22:56:55.457Z,7.10
2018-11-13T22:59:24.088Z,7.10
2018-11-13T23:01:52.671Z,7.10
2018-11-13T23:04:21.259Z,7.10
2018-11-13T23:06:49.773Z,7.20
2018-11-13T23:09:18.295Z,7.20
2018-11-13T23:11:46.866Z,7.20
2018-11-13T23:14:15.401Z,7.10
2018-11-13T23:16:44.000Z,7.10
2018-11-13T23:19:12.575Z,7.10
2018-11-13T23:21:41.103Z,7.00
2018-11-13T23:24:09.649Z,7.00
2018-11-13T23:26:38.212Z,7.00
2018-11-13T23:29:06.806Z,6.90
2018-11-13T23:31:35.368Z,6.90
2018-11-13T23:34:03.935Z,6.90
2018-11-13T23:36:32.458Z,6.80
2018-11-13T23:39:01.009Z,6.80
2018-11-13T23:41:29.558Z,6.80
2018-11-13T23:43:58.126Z,6.90
2018-11-13T23:46:26.669Z,6.90
2018-11-13T23:48:55.247Z,6.90
2018-11-13T23:51:23.775Z,6.80
2018-11-13T23:53:52.458Z,6.90
2018-11-13T23:56:20.951Z,6.90
2018-11-13T23:58:49.500Z,7.00
